TRV weather

Trivandrum International Airport
Thiruvananthapuram, Kerala, India

Public forecast

Using degrees Celsius for public forecast. Weather courtesy of forecast.io.

METAR (pilot weather report)

Retrieved 2019/06/18 10:30 UTC (17 minutes ago):

VOTV 181030Z 32010KT 5000 HZ SCT012 BKN080 30/26 Q1006 NOSIG

TAF (pilot weather forecast)

Retrieved 2019/06/18 06:00 UTC (5 hours ago):

TAF VOTV 180500Z 1806/1912 32010KT 5000 HZ SCT010 SC012 FEW025CB BKN080 TEMPO 1806/1815 32010G20KT 2500 TSRA RA BECMG 1818/1820 32010KT 4000 BR SCT012 SCT025CB SCT080 TEMPO 1823/1903 2500 RA SCT008 SCT012 FEW025CB BKN080 BECMG 1904/1906 5000 HZ TEMPO 1910/1912 2000 SHRA RA SCT010 SCT012 FEW025CB BKN080